Time;durP1;ratioP1;P1;durP2;ratioP2;P2;SDS_P1;SDS_P2;PMS_P1;PMS_P2;Temp;Humidity;BMP_temperature;BMP_pressure;BME280_temperature;BME280_humidity;BME280_pressure;Samples;Min_cycle;Max_cycle;Signal;HPM_P1;HPM_P2
2022/05/31 00:01:43;;;;;;;5.70;3.97;;;10.90;99.90;;;;;;5019693;28;20486;-82
2022/05/31 00:04:10;;;;;;;6.10;3.77;;;10.90;99.90;;;;;;5019894;28;20453;-83
2022/05/31 00:06:36;;;;;;;6.47;3.90;;;10.90;99.90;;;;;;5027457;28;20593;-82
2022/05/31 00:09:04;;;;;;;7.73;4.13;;;10.90;99.90;;;;;;5023377;28;20491;-83
2022/05/31 00:11:30;;;;;;;6.33;4.07;;;10.90;99.90;;;;;;5023782;28;20973;-82
2022/05/31 00:13:57;;;;;;;8.30;4.07;;;10.90;99.90;;;;;;5022608;28;20480;-83
2022/05/31 00:16:25;;;;;;;6.17;4.60;;;10.90;99.90;;;;;;5022196;28;20478;-83
2022/05/31 00:18:52;;;;;;;6.20;4.30;;;10.90;99.90;;;;;;5022542;28;20508;-83
2022/05/31 00:21:19;;;;;;;5.10;3.73;;;10.80;99.90;;;;;;5021961;28;20464;-81
2022/05/31 00:23:46;;;;;;;11.07;5.53;;;10.80;99.90;;;;;;5022297;28;20452;-82
2022/05/31 00:26:13;;;;;;;6.67;4.13;;;10.80;99.90;;;;;;5022256;28;20493;-84
2022/05/31 00:28:39;;;;;;;5.50;4.00;;;10.80;99.90;;;;;;5021130;28;20477;-83
2022/05/31 00:31:08;;;;;;;5.57;3.53;;;10.70;99.90;;;;;;5021188;28;20457;-81
2022/05/31 00:33:37;;;;;;;10.63;4.13;;;10.70;99.90;;;;;;5021358;28;20465;-83
2022/05/31 00:36:05;;;;;;;6.10;4.23;;;10.70;99.90;;;;;;5021417;28;20446;-82
2022/05/31 00:38:31;;;;;;;7.87;4.60;;;10.70;99.90;;;;;;5020257;28;20478;-81
2022/05/31 00:41:23;;;;;;;5.87;4.53;;;10.60;99.90;;;;;;5021554;28;20453;-82
2022/05/31 00:43:45;;;;;;;7.80;4.40;;;10.60;99.90;;;;;;5021066;28;20447;-83
2022/05/31 00:46:13;;;;;;;6.93;5.00;;;10.60;99.90;;;;;;5022269;28;20485;-82
2022/05/31 00:48:47;;;;;;;10.00;5.13;;;10.70;99.90;;;;;;5021245;28;20495;-82
2022/05/31 00:51:17;;;;;;;6.60;4.80;;;10.70;99.90;;;;;;5021025;28;20456;-82
2022/05/31 00:53:51;;;;;;;6.20;4.37;;;10.70;99.90;;;;;;5021860;28;20464;-83
2022/05/31 00:56:21;;;;;;;7.23;4.50;;;10.70;99.90;;;;;;5022297;28;20498;-80
2022/05/31 00:58:53;;;;;;;7.07;4.57;;;10.70;99.90;;;;;;5022693;28;20556;-82
2022/05/31 01:01:20;;;;;;;8.00;4.50;;;10.70;99.90;;;;;;5024107;28;20452;-81
2022/05/31 01:03:49;;;;;;;7.70;4.90;;;10.70;99.90;;;;;;5026735;28;20462;-82
2022/05/31 01:06:16;;;;;;;7.10;4.47;;;10.70;99.90;;;;;;5023072;28;20476;-84
2022/05/31 01:08:45;;;;;;;7.33;5.10;;;10.60;99.90;;;;;;5023677;28;20483;-83
2022/05/31 01:11:14;;;;;;;6.73;4.97;;;10.60;99.90;;;;;;5024126;28;20487;-83
2022/05/31 01:13:42;;;;;;;5.93;4.97;;;10.60;99.90;;;;;;5022968;28;20456;-84
2022/05/31 01:16:12;;;;;;;6.03;4.97;;;10.50;99.90;;;;;;5023605;28;20457;-82
2022/05/31 01:18:39;;;;;;;6.70;4.23;;;10.40;99.90;;;;;;5023634;28;20472;-84
2022/05/31 01:21:08;;;;;;;7.30;4.50;;;10.30;99.90;;;;;;5020600;28;20455;-82
2022/05/31 01:23:42;;;;;;;5.30;4.60;;;10.30;99.90;;;;;;5021643;28;20458;-84
2022/05/31 01:26:15;;;;;;;8.10;4.57;;;10.20;99.90;;;;;;5022344;28;20500;-83
2022/05/31 01:28:55;;;;;;;9.40;5.03;;;10.20;99.90;;;;;;5021396;28;20480;-82
2022/05/31 01:31:29;;;;;;;7.47;4.70;;;10.20;99.90;;;;;;5019597;28;20937;-82
2022/05/31 01:34:03;;;;;;;6.63;4.87;;;10.20;99.90;;;;;;5020432;28;20461;-84
2022/05/31 01:36:37;;;;;;;7.03;5.40;;;10.20;99.90;;;;;;5020617;28;20535;-83
2022/05/31 01:39:06;;;;;;;6.27;4.93;;;10.20;99.90;;;;;;5020621;28;20472;-84
2022/05/31 01:41:39;;;;;;;6.27;4.70;;;10.10;99.90;;;;;;5020368;28;20456;-83
2022/05/31 01:44:11;;;;;;;4.90;4.40;;;10.10;99.90;;;;;;5020185;28;20461;-84
2022/05/31 01:46:38;;;;;;;6.47;5.07;;;10.10;99.90;;;;;;5020404;28;20503;-83
2022/05/31 01:49:08;;;;;;;7.70;4.43;;;10.00;99.90;;;;;;5020500;28;20479;-83
2022/05/31 01:51:40;;;;;;;6.07;4.80;;;10.00;99.90;;;;;;5008910;28;20539;-84
2022/05/31 01:54:08;;;;;;;5.50;4.47;;;10.00;99.90;;;;;;5024179;28;20456;-83
2022/05/31 01:56:36;;;;;;;9.70;5.33;;;10.00;99.90;;;;;;5024617;28;20462;-85
2022/05/31 01:59:04;;;;;;;5.53;4.23;;;10.00;99.90;;;;;;5024172;28;20487;-84
2022/05/31 02:01:32;;;;;;;8.63;4.83;;;10.00;99.90;;;;;;5023102;28;20551;-83
2022/05/31 02:04:00;;;;;;;7.83;4.33;;;10.00;99.90;;;;;;5023782;28;20840;-84
2022/05/31 02:06:30;;;;;;;7.93;4.87;;;10.00;99.90;;;;;;5020794;28;20717;-84
2022/05/31 02:08:58;;;;;;;7.10;5.03;;;10.00;99.90;;;;;;5023803;28;20503;-84
2022/05/31 02:11:26;;;;;;;5.57;4.67;;;10.00;99.90;;;;;;5021560;28;20517;-85
2022/05/31 02:13:53;;;;;;;8.90;5.07;;;10.00;99.90;;;;;;5020919;28;20945;-83
2022/05/31 02:16:20;;;;;;;6.07;4.73;;;9.90;99.90;;;;;;5021443;28;20491;-85
2022/05/31 02:21:36;;;;;;;6.40;5.00;;;10.70;99.90;;;;;;5020861;28;20483;-83
2022/05/31 02:24:07;;;;;;;8.10;4.60;;;9.90;99.90;;;;;;5021436;28;20468;-84
2022/05/31 02:26:34;;;;;;;8.83;5.33;;;9.90;99.90;;;;;;5021247;28;20489;-84
2022/05/31 02:29:01;;;;;;;5.70;4.20;;;9.90;99.90;;;;;;5021742;28;20920;-83
2022/05/31 02:31:29;;;;;;;5.57;4.67;;;9.90;99.90;;;;;;5021844;28;20465;-83
2022/05/31 02:33:56;;;;;;;7.43;5.10;;;9.90;99.90;;;;;;5021259;28;20487;-84
2022/05/31 02:36:23;;;;;;;9.80;5.40;;;9.90;99.90;;;;;;5018484;28;20452;-83
2022/05/31 02:38:50;;;;;;;6.00;4.77;;;9.90;99.90;;;;;;5014686;28;20476;-83
2022/05/31 02:41:18;;;;;;;7.00;5.00;;;9.90;99.90;;;;;;5014039;28;20457;-83
2022/05/31 02:43:45;;;;;;;8.40;5.33;;;10.00;99.90;;;;;;5015213;28;20492;-82
2022/05/31 02:46:12;;;;;;;7.30;5.03;;;10.00;99.90;;;;;;5015459;28;21070;-83
2022/05/31 02:48:39;;;;;;;7.07;4.80;;;10.10;99.90;;;;;;5015683;28;20488;-83
2022/05/31 02:51:05;;;;;;;5.50;4.90;;;10.20;99.90;;;;;;5015035;28;20461;-83
2022/05/31 02:53:33;;;;;;;6.40;4.70;;;10.20;99.90;;;;;;5015564;28;20555;-83
2022/05/31 02:55:59;;;;;;;10.03;5.67;;;10.30;99.90;;;;;;5016590;28;20454;-82
2022/05/31 02:58:28;;;;;;;5.43;4.43;;;10.40;99.90;;;;;;5018055;28;20480;-83
2022/05/31 03:00:55;;;;;;;5.77;4.70;;;10.30;99.90;;;;;;5017411;28;20464;-82
2022/05/31 03:03:22;;;;;;;6.65;5.50;;;9.10;99.90;;;;;;5008113;28;20550;-81
2022/05/31 03:05:50;;;;;;;7.47;4.90;;;10.50;99.90;;;;;;5022508;28;20288;-81
2022/05/31 03:08:18;;;;;;;5.50;5.00;;;10.50;99.90;;;;;;5019682;28;20542;-83
2022/05/31 03:10:50;;;;;;;8.40;5.23;;;10.40;99.90;;;;;;5011847;28;20933;-82
2022/05/31 03:13:21;;;;;;;8.87;5.30;;;13.70;99.90;;;;;;5017612;28;21021;-82
2022/05/31 03:15:49;;;;;;;6.30;4.50;;;10.50;99.90;;;;;;5007862;28;20822;-82
2022/05/31 03:18:22;;;;;;;6.60;5.00;;;10.50;99.90;;;;;;4999769;28;20475;-83
2022/05/31 03:20:52;;;;;;;8.43;4.73;;;10.50;99.90;;;;;;5014230;28;20555;-84
2022/05/31 03:23:22;;;;;;;7.97;5.23;;;10.60;99.90;;;;;;5017189;28;20842;-84
2022/05/31 03:25:51;;;;;;;6.97;4.67;;;10.60;99.90;;;;;;5013835;28;20500;-84
2022/05/31 03:28:19;;;;;;;5.03;4.07;;;10.60;99.90;;;;;;5018348;28;20485;-85
2022/05/31 03:30:46;;;;;;;5.50;4.20;;;10.70;99.90;;;;;;5021888;28;20485;-85
2022/05/31 03:33:15;;;;;;;7.70;4.63;;;10.70;99.90;;;;;;5016538;28;20457;-84
2022/05/31 03:35:42;;;;;;;6.67;4.83;;;10.80;99.90;;;;;;5017096;28;20488;-84
2022/05/31 03:38:09;;;;;;;5.20;4.70;;;10.80;99.90;;;;;;5016530;28;20470;-84
2022/05/31 03:43:20;;;;;;;7.10;4.60;;;10.90;99.90;;;;;;5022081;28;20509;-84
2022/05/31 03:45:47;;;;;;;6.07;4.87;;;10.90;99.90;;;;;;5019022;28;20453;-84
2022/05/31 03:48:16;;;;;;;5.90;4.57;;;10.90;99.90;;;;;;5020025;28;20485;-84
2022/05/31 03:50:44;;;;;;;6.20;4.30;;;10.90;99.90;;;;;;5018063;28;20832;-84
2022/05/31 03:53:12;;;;;;;6.97;5.37;;;10.90;99.90;;;;;;5019053;28;20457;-84
2022/05/31 03:55:40;;;;;;;5.53;4.00;;;11.00;99.90;;;;;;5018265;28;20461;-85
2022/05/31 03:58:07;;;;;;;7.20;5.47;;;11.00;99.90;;;;;;5017946;28;20477;-84
2022/05/31 04:00:35;;;;;;;5.73;4.60;;;11.00;99.90;;;;;;5017420;28;20958;-84
2022/05/31 04:03:01;;;;;;;5.40;4.83;;;11.00;99.90;;;;;;5018262;28;20487;-84
2022/05/31 04:05:30;;;;;;;5.70;4.53;;;11.00;99.90;;;;;;5018580;28;20458;-85
2022/05/31 04:08:02;;;;;;;8.23;5.00;;;11.10;99.90;;;;;;5018028;28;20485;-84
2022/05/31 04:10:30;;;;;;;9.47;4.70;;;11.00;99.90;;;;;;5042218;22;20508;-77
2022/05/31 04:12:58;;;;;;;7.30;4.33;;;11.10;99.90;;;;;;5014043;28;20866;-78
2022/05/31 04:15:25;;;;;;;9.50;4.87;;;11.10;99.90;;;;;;5014852;28;20456;-78
2022/05/31 04:17:52;;;;;;;6.47;4.33;;;11.20;99.90;;;;;;5013944;28;20460;-78
2022/05/31 04:20:19;;;;;;;7.07;4.50;;;11.20;99.90;;;;;;5018672;28;20852;-78
2022/05/31 04:22:47;;;;;;;8.60;4.40;;;11.30;99.90;;;;;;5031274;28;20457;-79
2022/05/31 04:25:14;;;;;;;5.90;4.60;;;11.30;99.90;;;;;;5033524;28;20471;-79
2022/05/31 04:27:41;;;;;;;8.63;4.00;;;11.40;99.90;;;;;;5033123;28;20575;-79
2022/05/31 04:30:09;;;;;;;7.03;4.60;;;11.40;99.90;;;;;;5033637;28;20468;-79
2022/05/31 04:32:35;;;;;;;9.27;5.00;;;11.40;99.90;;;;;;5021166;28;20456;-79
2022/05/31 04:35:02;;;;;;;6.80;4.10;;;11.40;99.90;;;;;;5016552;28;20450;-79
2022/05/31 04:37:29;;;;;;;5.43;3.93;;;11.40;99.90;;;;;;5017717;28;20471;-79
2022/05/31 04:39:58;;;;;;;7.73;4.30;;;11.40;99.90;;;;;;5017526;28;20459;-78
2022/05/31 04:42:25;;;;;;;9.70;4.70;;;11.40;99.90;;;;;;5026126;28;20465;-79
2022/05/31 04:44:52;;;;;;;6.50;4.13;;;11.50;99.90;;;;;;5037672;28;20449;-78
2022/05/31 04:47:19;;;;;;;6.60;4.37;;;11.50;99.90;;;;;;5037230;28;20503;-80
2022/05/31 04:49:46;;;;;;;5.83;4.10;;;11.60;99.90;;;;;;5037075;28;20459;-79
2022/05/31 04:52:12;;;;;;;7.27;4.20;;;11.60;99.90;;;;;;5035993;28;20461;-78
2022/05/31 04:54:39;;;;;;;6.40;4.07;;;11.70;99.90;;;;;;5036888;28;20855;-78
2022/05/31 04:57:07;;;;;;;8.60;4.73;;;11.70;99.90;;;;;;5037196;28;20528;-78
2022/05/31 04:59:34;;;;;;;7.97;4.13;;;11.80;99.90;;;;;;5037105;28;20587;-78
2022/05/31 05:02:01;;;;;;;7.23;4.30;;;11.80;99.90;;;;;;5030763;28;20487;-78
2022/05/31 05:04:28;;;;;;;6.60;4.37;;;11.80;99.90;;;;;;5017388;28;20458;-78
2022/05/31 05:06:55;;;;;;;7.50;4.87;;;11.90;99.90;;;;;;5017651;28;20490;-78
2022/05/31 05:09:21;;;;;;;6.23;4.20;;;11.90;99.90;;;;;;5017210;28;20456;-78
2022/05/31 05:11:48;;;;;;;6.70;5.13;;;12.00;99.90;;;;;;5019797;28;20940;-78
2022/05/31 05:14:16;;;;;;;5.83;3.93;;;11.90;99.90;;;;;;5036764;28;20557;-78
2022/05/31 05:16:43;;;;;;;7.80;4.50;;;12.00;99.90;;;;;;5036925;28;20839;-78
2022/05/31 05:19:10;;;;;;;4.63;4.00;;;12.00;99.90;;;;;;5036298;28;20449;-78
2022/05/31 05:21:36;;;;;;;6.83;4.67;;;12.00;99.90;;;;;;5036118;28;20476;-78
2022/05/31 05:24:03;;;;;;;5.57;4.30;;;12.10;99.90;;;;;;5036570;28;20441;-79
2022/05/31 05:26:30;;;;;;;5.87;4.27;;;12.10;99.90;;;;;;5036863;28;21005;-78
2022/05/31 05:31:43;;;;;;;5.80;4.50;;;12.20;99.90;;;;;;5035005;28;20446;-78
2022/05/31 05:34:10;;;;;;;7.70;4.87;;;12.10;99.90;;;;;;5035273;28;20459;-79
2022/05/31 05:36:36;;;;;;;5.00;4.07;;;12.10;99.90;;;;;;5035662;28;20450;-78
2022/05/31 05:39:10;;;;;;;6.30;4.00;;;12.10;99.90;;;;;;5036195;28;20492;-78
2022/05/31 05:41:37;;;;;;;5.20;4.70;;;12.10;99.90;;;;;;5036096;28;20562;-79
2022/05/31 05:44:04;;;;;;;7.00;4.37;;;12.20;99.90;;;;;;5033377;28;20453;-79
2022/05/31 05:46:31;;;;;;;6.73;4.27;;;12.20;99.90;;;;;;5028393;28;20453;-78
2022/05/31 05:48:59;;;;;;;8.53;4.83;;;12.20;99.90;;;;;;5037069;28;20530;-79
2022/05/31 05:51:29;;;;;;;6.47;4.97;;;12.10;99.90;;;;;;5039594;28;20856;-78
2022/05/31 05:53:56;;;;;;;12.07;6.03;;;12.10;99.90;;;;;;5040825;28;20459;-78
2022/05/31 05:56:23;;;;;;;8.40;5.77;;;12.00;99.90;;;;;;5021031;28;20459;-78
2022/05/31 05:58:50;;;;;;;10.30;6.47;;;12.00;99.90;;;;;;5021387;28;20447;-79
2022/05/31 06:01:22;;;;;;;7.30;5.80;;;12.00;99.90;;;;;;5038138;28;20484;-79
2022/05/31 06:03:53;;;;;;;12.03;7.57;;;12.10;99.90;;;;;;5039024;28;20468;-78
2022/05/31 06:06:23;;;;;;;11.37;7.43;;;12.10;99.90;;;;;;5037076;28;20490;-78
2022/05/31 06:08:56;;;;;;;11.53;7.00;;;12.30;99.90;;;;;;5038463;28;20450;-80
2022/05/31 06:11:25;;;;;;;9.40;6.50;;;12.40;99.90;;;;;;5037000;28;20482;-79
2022/05/31 06:13:58;;;;;;;10.70;7.73;;;12.50;99.90;;;;;;5038652;28;20535;-80
2022/05/31 06:16:29;;;;;;;11.03;7.77;;;12.60;99.90;;;;;;5037232;28;20456;-79
2022/05/31 06:19:00;;;;;;;11.17;6.80;;;12.80;99.90;;;;;;5039451;28;20451;-79
2022/05/31 06:21:28;;;;;;;8.03;6.30;;;12.90;99.90;;;;;;5038986;28;20463;-79
2022/05/31 06:23:56;;;;;;;8.20;7.10;;;13.00;99.90;;;;;;5038191;28;20454;-79
2022/05/31 06:26:23;;;;;;;8.67;7.00;;;13.00;99.90;;;;;;5019075;28;20459;-79
2022/05/31 06:28:50;;;;;;;7.23;6.50;;;13.10;99.90;;;;;;5027365;28;20496;-80
2022/05/31 06:31:17;;;;;;;9.60;5.87;;;13.20;99.90;;;;;;5026290;28;20464;-79
2022/05/31 06:33:46;;;;;;;6.60;5.27;;;13.30;99.90;;;;;;5043922;28;20455;-80
2022/05/31 06:36:14;;;;;;;7.90;6.00;;;13.30;99.90;;;;;;5042452;28;20555;-80
2022/05/31 06:38:42;;;;;;;6.60;5.10;;;13.40;99.90;;;;;;5045374;28;20456;-79
2022/05/31 06:41:09;;;;;;;8.60;6.00;;;13.60;99.90;;;;;;5041219;28;20549;-79
2022/05/31 06:43:36;;;;;;;10.93;5.70;;;13.80;99.90;;;;;;5043819;28;20514;-80
2022/05/31 06:46:06;;;;;;;6.57;4.97;;;13.90;99.90;;;;;;5033742;28;20514;-80
2022/05/31 06:48:33;;;;;;;9.80;4.97;;;14.10;99.90;;;;;;5036859;28;20485;-80
2022/05/31 06:51:04;;;;;;;9.63;4.20;;;13.90;99.90;;;;;;5036503;28;20483;-80
2022/05/31 06:58:57;;;;;;;7.50;4.80;;;14.00;99.90;;;;;;5010202;28;20452;-80
2022/05/31 07:01:30;;;;;;;10.77;5.07;;;14.00;99.90;;;;;;5026670;28;20463;-80
2022/05/31 07:03:58;;;;;;;6.13;4.80;;;14.00;99.90;;;;;;5036953;28;20469;-79
2022/05/31 07:06:25;;;;;;;9.20;4.00;;;14.00;99.90;;;;;;5034361;28;20445;-78
2022/05/31 07:08:52;;;;;;;10.67;4.27;;;13.80;99.90;;;;;;5034542;28;20565;-79
2022/05/31 07:11:20;;;;;;;6.13;4.87;;;13.80;99.90;;;;;;5035279;28;20490;-80
2022/05/31 07:13:47;;;;;;;6.30;4.83;;;13.50;99.90;;;;;;5037751;28;20445;-79
2022/05/31 07:16:14;;;;;;;7.00;4.53;;;13.60;99.90;;;;;;5037158;28;20453;-79
2022/05/31 07:18:41;;;;;;;5.90;3.90;;;13.70;99.90;;;;;;5026145;28;20819;-79
2022/05/31 07:21:08;;;;;;;6.63;4.73;;;13.60;99.90;;;;;;5033658;28;21041;-79
2022/05/31 07:23:35;;;;;;;5.57;3.60;;;13.50;99.90;;;;;;5034899;28;20967;-80
2022/05/31 07:26:04;;;;;;;7.23;4.37;;;13.50;99.90;;;;;;5031915;28;20456;-79
2022/05/31 07:28:32;;;;;;;7.97;4.50;;;13.50;99.90;;;;;;5032424;28;21026;-79
2022/05/31 07:31:00;;;;;;;7.57;5.10;;;13.50;99.90;;;;;;5033127;28;20471;-80
2022/05/31 07:33:27;;;;;;;11.03;6.90;;;13.40;99.90;;;;;;5029449;28;20467;-80
2022/05/31 07:35:54;;;;;;;8.80;5.47;;;13.30;99.90;;;;;;5035213;28;20456;-79
2022/05/31 07:38:21;;;;;;;12.40;5.23;;;13.30;99.90;;;;;;5030219;28;20455;-80
2022/05/31 07:40:48;;;;;;;6.80;5.10;;;13.30;99.90;;;;;;5017084;28;20475;-80
2022/05/31 07:43:15;;;;;;;5.27;4.77;;;13.20;99.90;;;;;;5021866;28;20495;-80
2022/05/31 07:45:43;;;;;;;7.50;5.27;;;12.90;99.90;;;;;;5040228;28;20460;-79
2022/05/31 07:48:11;;;;;;;8.13;5.60;;;13.00;99.90;;;;;;5023298;28;21020;-79
2022/05/31 07:50:38;;;;;;;8.70;5.90;;;13.00;99.90;;;;;;5022416;28;20487;-80
2022/05/31 07:53:05;;;;;;;9.57;4.97;;;13.00;99.90;;;;;;5037503;28;20457;-80
2022/05/31 07:55:32;;;;;;;10.20;5.60;;;12.90;99.90;;;;;;5034953;28;20459;-80
2022/05/31 08:00:45;;;;;;;9.93;6.30;;;12.70;99.90;;;;;;5030056;28;21341;-80
2022/05/31 08:03:12;;;;;;;6.60;5.70;;;12.80;99.90;;;;;;5039083;28;20987;-80
2022/05/31 08:05:40;;;;;;;12.70;5.80;;;12.70;99.90;;;;;;5035523;28;20533;-81
2022/05/31 08:08:09;;;;;;;8.53;6.10;;;12.70;99.90;;;;;;5035485;28;20867;-80
2022/05/31 08:10:36;;;;;;;10.13;6.17;;;12.70;99.90;;;;;;5035644;28;20935;-80
2022/05/31 08:13:03;;;;;;;9.20;6.80;;;12.70;99.90;;;;;;5036844;28;20447;-80
2022/05/31 08:15:30;;;;;;;8.87;5.70;;;12.60;99.90;;;;;;5035407;28;20956;-80
2022/05/31 08:17:58;;;;;;;9.40;5.70;;;12.60;99.90;;;;;;5038394;28;20444;-80
2022/05/31 08:20:25;;;;;;;7.90;6.40;;;12.60;99.90;;;;;;5040247;28;20550;-78
2022/05/31 08:22:52;;;;;;;7.83;6.20;;;12.70;99.90;;;;;;5038849;28;20479;-80
2022/05/31 08:25:19;;;;;;;7.50;5.40;;;12.80;99.90;;;;;;5037137;28;20452;-81
2022/05/31 08:27:46;;;;;;;8.30;6.50;;;13.00;99.90;;;;;;5041210;28;20859;-80
2022/05/31 08:30:13;;;;;;;9.40;6.30;;;13.10;99.90;;;;;;5037363;28;20472;-79
2022/05/31 08:32:40;;;;;;;7.87;6.00;;;13.40;99.90;;;;;;5042766;28;20461;-80
2022/05/31 08:35:08;;;;;;;8.30;7.47;;;13.40;99.90;;;;;;5044668;28;20996;-79
2022/05/31 08:37:35;;;;;;;7.53;6.17;;;13.50;99.90;;;;;;5043130;28;21059;-79
2022/05/31 08:40:02;;;;;;;8.80;6.50;;;13.70;99.90;;;;;;5037731;28;20505;-79
2022/05/31 08:42:51;;;;;;;6.57;5.87;;;13.90;99.90;;;;;;5034984;28;20450;-79
2022/05/31 08:45:32;;;;;;;10.83;6.43;;;14.10;99.90;;;;;;5030303;28;20457;-79
2022/05/31 08:48:03;;;;;;;9.70;6.10;;;14.30;99.90;;;;;;5015806;28;20485;-79
2022/05/31 08:53:26;;;;;;;8.20;6.60;;;14.40;99.90;;;;;;5015963;28;20491;-79
2022/05/31 08:58:46;;;;;;;8.80;7.10;;;14.70;99.90;;;;;;5015370;28;20451;-80
2022/05/31 09:01:17;;;;;;;10.40;5.73;;;14.90;99.90;;;;;;5015407;28;20484;-79
2022/05/31 09:03:48;;;;;;;9.83;6.17;;;14.90;99.90;;;;;;5016270;28;20461;-80
2022/05/31 09:06:21;;;;;;;9.00;6.87;;;15.00;99.90;;;;;;5028740;28;20835;-78
2022/05/31 09:08:57;;;;;;;9.50;5.87;;;15.10;99.90;;;;;;5034653;28;20491;-79
2022/05/31 09:11:28;;;;;;;7.07;5.47;;;15.10;99.90;;;;;;5033950;28;20516;-79
2022/05/31 09:14:01;;;;;;;7.03;5.33;;;15.30;99.90;;;;;;5034643;28;20454;-79
2022/05/31 09:16:37;;;;;;;7.70;6.00;;;15.40;99.90;;;;;;5040934;28;20520;-79
2022/05/31 09:19:08;;;;;;;9.40;4.97;;;15.50;99.90;;;;;;5044439;28;20485;-79
2022/05/31 09:21:40;;;;;;;9.40;5.80;;;15.80;99.90;;;;;;5045240;28;20463;-80
2022/05/31 09:24:10;;;;;;;10.17;5.67;;;16.10;99.90;;;;;;5047584;28;20554;-80
2022/05/31 09:27:02;;;;;;;6.97;5.00;;;16.30;99.90;;;;;;5032272;28;20990;-79
2022/05/31 09:29:40;;;;;;;9.23;5.30;;;16.20;99.90;;;;;;5025007;28;20491;-80
2022/05/31 09:32:15;;;;;;;7.57;5.43;;;16.30;99.90;;;;;;5026624;28;20455;-79
2022/05/31 09:35:07;;;;;;;8.67;5.30;;;16.30;99.90;;;;;;5020505;28;20452;-80
2022/05/31 09:38:04;;;;;;;6.90;4.80;;;16.20;99.90;;;;;;5019206;28;20464;-79
2022/05/31 09:40:41;;;;;;;6.53;4.67;;;16.10;99.90;;;;;;5018108;28;20470;-79
2022/05/31 09:43:17;;;;;;;5.93;4.63;;;16.10;99.90;;;;;;5020861;28;20459;-80
2022/05/31 09:45:53;;;;;;;7.57;4.50;;;16.30;99.90;;;;;;5026215;28;20451;-80
2022/05/31 09:48:20;;;;;;;7.37;4.50;;;16.30;99.90;;;;;;5039452;28;20496;-80
2022/05/31 09:50:47;;;;;;;6.30;5.30;;;16.30;99.90;;;;;;5037810;28;20471;-79
2022/05/31 09:59:05;;;;;;;9.33;5.10;;;16.70;99.90;;;;;;5037106;28;20447;-80
2022/05/31 10:01:40;;;;;;;8.33;4.10;;;16.90;99.90;;;;;;5037965;28;20471;-80
2022/05/31 10:04:10;;;;;;;7.73;4.67;;;17.00;99.90;;;;;;5038263;28;20460;-79
2022/05/31 10:06:53;;;;;;;8.27;4.70;;;16.40;99.90;;;;;;5024005;28;20454;-79
2022/05/31 10:09:29;;;;;;;8.13;4.30;;;16.80;99.90;;;;;;5017775;28;20552;-80
2022/05/31 10:12:12;;;;;;;7.27;4.23;;;16.90;99.90;;;;;;5050752;22;20519;-83
2022/05/31 10:14:43;;;;;;;5.80;3.97;;;17.00;99.90;;;;;;5037843;28;20456;-83
2022/05/31 10:17:28;;;;;;;5.70;3.47;;;17.40;99.90;;;;;;5037290;28;20461;-83
2022/05/31 10:20:09;;;;;;;8.50;4.50;;;17.60;99.90;;;;;;5037049;28;20466;-83
2022/05/31 10:22:37;;;;;;;4.30;3.40;;;17.70;99.90;;;;;;5049000;28;21007;-83
2022/05/31 10:25:21;;;;;;;4.30;3.47;;;17.70;99.90;;;;;;5056341;28;20509;-83
2022/05/31 10:27:48;;;;;;;5.87;3.60;;;17.70;99.90;;;;;;5055578;28;20456;-83
2022/05/31 10:30:20;;;;;;;8.20;4.57;;;17.70;99.90;;;;;;5056148;28;20457;-83
2022/05/31 10:32:51;;;;;;;5.87;3.70;;;17.50;99.90;;;;;;5055765;28;20516;-83
2022/05/31 10:35:20;;;;;;;6.40;3.40;;;17.60;99.90;;;;;;5056914;28;20585;-83
2022/05/31 10:37:57;;;;;;;7.10;3.67;;;17.50;99.90;;;;;;5056666;28;20514;-83
2022/05/31 10:40:39;;;;;;;6.63;3.53;;;17.60;99.90;;;;;;5056090;28;20458;-82
2022/05/31 10:43:21;;;;;;;5.73;3.60;;;17.80;99.90;;;;;;5055546;28;20468;-83
2022/05/31 10:45:48;;;;;;;8.33;3.53;;;18.10;99.90;;;;;;5055148;28;20456;-83
2022/05/31 10:48:15;;;;;;;7.40;3.80;;;18.20;99.90;;;;;;5055696;28;20482;-84
2022/05/31 10:50:55;;;;;;;5.60;3.33;;;18.50;99.90;;;;;;5055857;28;20954;-83
2022/05/31 10:53:31;;;;;;;8.10;3.50;;;18.60;99.90;;;;;;5055988;28;20481;-83
2022/05/31 10:56:09;;;;;;;5.80;3.87;;;19.10;99.90;;;;;;5057528;28;20529;-84
2022/05/31 10:58:52;;;;;;;4.67;2.83;;;20.10;99.90;;;;;;5064659;28;20452;-85
2022/05/31 11:01:28;;;;;;;5.00;3.63;;;21.20;99.90;;;;;;5061948;28;20437;-83
2022/05/31 11:04:03;;;;;;;6.13;3.43;;;22.10;99.90;;;;;;5062606;28;20543;-84
2022/05/31 11:06:42;;;;;;;6.00;3.20;;;22.80;99.90;;;;;;5055453;28;20456;-83
2022/05/31 11:12:31;;;;;;;4.93;2.80;;;23.40;99.90;;;;;;5020723;28;20833;-84
2022/05/31 11:15:09;;;;;;;3.77;2.53;;;23.50;99.90;;;;;;5055269;28;20607;-83
2022/05/31 11:17:57;;;;;;;7.53;2.80;;;24.00;99.90;;;;;;5054545;28;20462;-84
2022/05/31 11:20:30;;;;;;;3.77;2.43;;;23.90;99.90;;;;;;5053836;28;20456;-82
2022/05/31 11:23:12;;;;;;;3.93;2.53;;;24.10;99.90;;;;;;5054022;28;20534;-83
2022/05/31 11:25:59;;;;;;;6.10;2.97;;;24.60;99.90;;;;;;5054179;28;20991;-84
2022/05/31 11:28:42;;;;;;;5.57;2.73;;;24.50;99.90;;;;;;5054354;28;20510;-83
2022/05/31 11:31:28;;;;;;;5.30;2.33;;;25.10;99.90;;;;;;5053545;28;20455;-83
2022/05/31 11:34:07;;;;;;;3.40;2.40;;;25.10;99.90;;;;;;5054311;28;20459;-83
2022/05/31 11:36:47;;;;;;;7.07;2.60;;;24.90;99.90;;;;;;5053912;28;20476;-83
2022/05/31 11:39:29;;;;;;;7.37;3.37;;;24.40;99.90;;;;;;5058573;28;20531;-83
2022/05/31 11:42:09;;;;;;;4.23;2.93;;;23.20;99.90;;;;;;5052843;28;20472;-83
2022/05/31 11:45:03;;;;;;;5.03;2.50;;;23.50;99.90;;;;;;5053607;28;20452;-84
2022/05/31 11:48:01;;;;;;;3.50;2.10;;;24.20;99.90;;;;;;5053572;28;20435;-83
2022/05/31 11:50:37;;;;;;;4.70;2.10;;;24.40;99.90;;;;;;5029914;28;20458;-83
2022/05/31 11:53:36;;;;;;;3.87;2.10;;;24.50;99.90;;;;;;5052720;28;20472;-83
2022/05/31 11:56:07;;;;;;;4.33;2.20;;;24.50;99.90;;;;;;5062763;28;20482;-84
2022/05/31 11:58:44;;;;;;;4.57;2.53;;;24.40;99.90;;;;;;5057382;28;20436;-83
2022/05/31 12:01:18;;;;;;;3.43;2.57;;;23.80;99.90;;;;;;5051873;28;20470;-82
2022/05/31 12:03:52;;;;;;;4.57;2.27;;;24.50;99.90;;;;;;5052059;28;20451;-82
2022/05/31 12:06:24;;;;;;;3.40;2.30;;;24.90;99.90;;;;;;5053504;28;20446;-83
2022/05/31 12:08:55;;;;;;;4.07;2.27;;;25.00;99.90;;;;;;5054373;28;20559;-83
2022/05/31 12:11:30;;;;;;;3.60;2.87;;;25.50;99.90;;;;;;5058094;28;20456;-82
2022/05/31 12:13:59;;;;;;;3.70;2.03;;;25.30;99.90;;;;;;5057355;28;20452;-82
2022/05/31 12:16:29;;;;;;;4.20;2.70;;;25.50;99.90;;;;;;5059051;28;20440;-82
2022/05/31 12:19:07;;;;;;;3.90;2.53;;;26.00;99.90;;;;;;5061365;28;20889;-82
2022/05/31 12:21:39;;;;;;;5.47;2.40;;;26.30;99.90;;;;;;5056641;28;20471;-82
2022/05/31 12:24:11;;;;;;;3.57;2.27;;;26.50;99.90;;;;;;5057749;28;20523;-83
2022/05/31 12:26:47;;;;;;;4.03;2.50;;;26.60;99.90;;;;;;5057187;28;20467;-83
2022/05/31 12:29:19;;;;;;;5.83;2.43;;;26.60;99.90;;;;;;5058275;28;20499;-83
2022/05/31 12:31:47;;;;;;;5.63;2.57;;;26.80;99.90;;;;;;5057556;28;20479;-82
2022/05/31 12:34:40;;;;;;;3.60;2.10;;;26.50;99.60;;;;;;5059024;28;20796;-82
2022/05/31 12:37:09;;;;;;;4.00;1.80;;;27.30;99.90;;;;;;5050109;28;20460;-83
2022/05/31 12:39:38;;;;;;;3.33;2.00;;;28.40;99.90;;;;;;5062488;28;20451;-84
2022/05/31 12:42:37;;;;;;;4.90;2.40;;;28.50;99.90;;;;;;5062373;28;20456;-83
2022/05/31 12:45:21;;;;;;;3.50;2.70;;;28.70;99.90;;;;;;5063831;28;20455;-83
2022/05/31 12:47:55;;;;;;;4.53;2.63;;;29.30;99.90;;;;;;5063038;28;20452;-82
2022/05/31 12:50:50;;;;;;;3.40;1.70;;;29.70;99.90;;;;;;5070871;28;20486;-83
2022/05/31 12:53:20;;;;;;;4.40;2.13;;;29.90;99.90;;;;;;5075409;28;20491;-83
2022/05/31 12:55:59;;;;;;;6.53;2.60;;;30.20;93.00;;;;;;5074776;28;20497;-83
2022/05/31 12:58:49;;;;;;;6.00;2.90;;;30.00;93.20;;;;;;5074270;28;20527;-84
2022/05/31 13:01:36;;;;;;;4.80;1.63;;;30.60;90.90;;;;;;5066972;28;20447;-83
2022/05/31 13:04:28;;;;;;;3.47;1.80;;;31.20;91.30;;;;;;5060610;28;20460;-82
2022/05/31 13:07:14;;;;;;;3.10;1.57;;;31.80;80.50;;;;;;5079637;28;20870;-82
2022/05/31 13:09:46;;;;;;;3.50;1.70;;;31.00;99.90;;;;;;5063970;28;20533;-82
2022/05/31 13:20:42;;;;;;;3.70;1.67;;;31.10;99.90;;;;;;5061922;28;20530;-84
2022/05/31 13:23:16;;;;;;;3.80;1.60;;;31.50;99.90;;;;;;5063751;28;21069;-82
2022/05/31 13:25:49;;;;;;;4.20;2.00;;;31.70;99.90;;;;;;5059280;28;20447;-82
2022/05/31 13:28:27;;;;;;;3.00;1.60;;;32.00;99.90;;;;;;5057153;28;20447;-83
2022/05/31 13:30:59;;;;;;;2.67;1.60;;;31.90;99.90;;;;;;5056926;28;20427;-83
2022/05/31 13:33:27;;;;;;;2.50;1.40;;;31.70;99.90;;;;;;5058224;28;20472;-82
2022/05/31 13:36:02;;;;;;;3.37;1.30;;;31.20;99.90;;;;;;5076987;28;20516;-82
2022/05/31 13:38:32;;;;;;;3.87;2.17;;;30.00;99.90;;;;;;5080500;28;20951;-82
2022/05/31 13:41:01;;;;;;;3.90;1.97;;;28.40;99.90;;;;;;5078801;28;21014;-83
2022/05/31 13:43:33;;;;;;;4.37;1.30;;;27.70;99.90;;;;;;5061046;28;20472;-84
2022/05/31 13:46:03;;;;;;;4.30;1.60;;;27.90;99.90;;;;;;5060583;28;20538;-84